createdAt,value
2018-12-30T00:02:36.586Z,101673.48
2018-12-30T00:05:42.165Z,101664.63
2018-12-30T00:08:47.278Z,101674.66
2018-12-30T00:11:52.422Z,101695.70
2018-12-30T00:14:57.686Z,101705.00
2018-12-30T00:18:02.779Z,101697.80
2018-12-30T00:21:09.152Z,101728.02
2018-12-30T00:24:14.663Z,101726.26
2018-12-30T00:27:20.274Z,101742.02
2018-12-30T00:30:25.363Z,101740.31
2018-12-30T00:33:30.477Z,101767.72
2018-12-30T00:36:35.564Z,101759.27
2018-12-30T00:39:40.722Z,101766.58
2018-12-30T00:42:45.800Z,101773.19
2018-12-30T00:45:50.910Z,101786.88
2018-12-30T00:48:56.499Z,101795.00
2018-12-30T00:52:01.623Z,101802.22
2018-12-30T00:55:07.104Z,101801.58
2018-12-30T00:58:12.227Z,101826.23
2018-12-30T01:01:17.340Z,101839.56
2018-12-30T01:04:22.632Z,101837.37
2018-12-30T01:07:27.736Z,101852.24
2018-12-30T01:10:33.246Z,101868.45
2018-12-30T01:13:38.353Z,101864.05
2018-12-30T01:16:43.566Z,101866.42
2018-12-30T01:19:48.700Z,101870.31
2018-12-30T01:22:53.807Z,101881.81
2018-12-30T01:25:58.926Z,101888.56
2018-12-30T01:29:04.052Z,101890.23
2018-12-30T01:32:09.551Z,101911.17
2018-12-30T01:35:14.661Z,101911.69
2018-12-30T01:38:19.780Z,101927.19
2018-12-30T01:41:24.890Z,101938.83
2018-12-30T01:44:30.000Z,101940.02
2018-12-30T01:47:35.148Z,101952.16
2018-12-30T01:50:40.344Z,101963.61
2018-12-30T01:53:45.766Z,101969.01
2018-12-30T01:56:50.900Z,101994.82
2018-12-30T01:59:56.012Z,101986.70
2018-12-30T02:03:01.148Z,101990.91
2018-12-30T02:06:06.342Z,101993.13
2018-12-30T02:09:11.445Z,102003.88
2018-12-30T02:12:16.563Z,102011.16
2018-12-30T02:15:21.749Z,102019.77
2018-12-30T02:18:26.873Z,102020.43
2018-12-30T02:21:31.987Z,102023.48
2018-12-30T02:24:37.114Z,102024.16
2018-12-30T02:27:42.213Z,102027.72
2018-12-30T02:30:47.402Z,102033.96
2018-12-30T02:33:52.517Z,102022.53
2018-12-30T02:36:57.627Z,102035.00
2018-12-30T02:40:03.183Z,102022.52
2018-12-30T02:43:08.332Z,102026.23
2018-12-30T02:46:13.431Z,102029.95
2018-12-30T02:49:18.582Z,102029.09
2018-12-30T02:52:23.729Z,102041.43
2018-12-30T02:55:28.868Z,102041.77
2018-12-30T02:58:33.971Z,102048.88
2018-12-30T03:01:39.136Z,102048.53
2018-12-30T03:04:44.377Z,102052.58
2018-12-30T03:07:49.471Z,102049.05
2018-12-30T03:10:54.596Z,102054.09
2018-12-30T03:13:59.710Z,102070.81
2018-12-30T03:17:04.920Z,102058.47
2018-12-30T03:20:10.095Z,102056.11
2018-12-30T03:23:15.212Z,102068.28
2018-12-30T03:26:20.317Z,102065.59
2018-12-30T03:29:25.462Z,102062.70
2018-12-30T03:32:30.562Z,102092.77
2018-12-30T03:35:35.687Z,102084.50
2018-12-30T03:38:40.801Z,102091.91
2018-12-30T03:41:45.922Z,102096.33
2018-12-30T03:44:51.035Z,102101.56
2018-12-30T03:47:56.158Z,102092.95
2018-12-30T03:51:01.236Z,102104.61
2018-12-30T03:54:06.355Z,102117.27
2018-12-30T03:57:11.456Z,102108.14
2018-12-30T04:00:16.676Z,102122.85
2018-12-30T04:03:21.795Z,102126.57
2018-12-30T04:06:26.918Z,102130.12
2018-12-30T04:09:32.028Z,102127.09
2018-12-30T04:12:37.144Z,102135.00
2018-12-30T04:15:42.235Z,102143.62
2018-12-30T04:18:47.489Z,102153.09
2018-12-30T04:21:52.587Z,102151.05
2018-12-30T04:24:57.733Z,102158.81
2018-12-30T04:28:02.849Z,102167.11
2018-12-30T04:31:07.974Z,102169.13
2018-12-30T04:34:13.115Z,102173.70
2018-12-30T04:37:18.257Z,102181.48
2018-12-30T04:40:23.365Z,102183.33
2018-12-30T04:43:28.511Z,102197.69
2018-12-30T04:46:33.604Z,102197.70
2018-12-30T04:49:38.708Z,102195.52
2018-12-30T04:52:43.843Z,102211.03
2018-12-30T04:55:48.946Z,102202.27
2018-12-30T04:58:54.097Z,102205.47
2018-12-30T05:01:59.200Z,102208.69
2018-12-30T05:05:04.337Z,102202.59
2018-12-30T05:08:09.445Z,102215.61
2018-12-30T05:11:14.567Z,102224.21
2018-12-30T05:14:19.683Z,102226.75
2018-12-30T05:17:24.810Z,102228.81
2018-12-30T05:20:29.996Z,102239.94
2018-12-30T05:23:35.113Z,102239.77
2018-12-30T05:26:40.229Z,102250.09
2018-12-30T05:29:45.365Z,102257.17
2018-12-30T05:32:50.502Z,102258.53
2018-12-30T05:35:55.590Z,102255.68
2018-12-30T05:39:00.741Z,102256.01
2018-12-30T05:42:05.840Z,102265.64
2018-12-30T05:45:10.953Z,102260.71
2018-12-30T05:48:16.090Z,102269.31
2018-12-30T05:51:21.196Z,102261.54
2018-12-30T05:54:26.306Z,102275.25
2018-12-30T05:57:31.421Z,102280.13
2018-12-30T06:00:36.547Z,102275.25
2018-12-30T06:03:41.662Z,102288.76
2018-12-30T06:06:46.799Z,102296.89
2018-12-30T06:09:51.892Z,102299.29
2018-12-30T06:12:57.012Z,102314.69
2018-12-30T06:16:02.116Z,102320.25
2018-12-30T06:19:07.246Z,102312.13
2018-12-30T06:22:12.413Z,102317.90
2018-12-30T06:25:17.612Z,102329.58
2018-12-30T06:28:22.707Z,102324.85
2018-12-30T06:31:27.851Z,102326.02
2018-12-30T06:34:32.942Z,102334.46
2018-12-30T06:37:38.079Z,102346.80
2018-12-30T06:40:43.185Z,102344.28
2018-12-30T06:43:48.325Z,102345.98
2018-12-30T06:46:53.484Z,102345.48
2018-12-30T06:49:58.609Z,102350.72
2018-12-30T06:53:03.695Z,102358.84
2018-12-30T06:56:08.891Z,102348.55
2018-12-30T06:59:14.023Z,102353.95
2018-12-30T07:02:19.310Z,102360.36
2018-12-30T07:05:24.434Z,102363.56
2018-12-30T07:08:29.534Z,102373.36
2018-12-30T07:11:34.633Z,102362.05
2018-12-30T07:14:39.764Z,102367.47
2018-12-30T07:17:44.864Z,102363.38
2018-12-30T07:20:49.989Z,102364.05
2018-12-30T07:23:55.084Z,102366.59
2018-12-30T07:27:00.225Z,102376.05
2018-12-30T07:30:06.055Z,102371.66
2018-12-30T07:33:11.196Z,102371.66
2018-12-30T07:36:16.279Z,102373.02
2018-12-30T07:39:21.445Z,102370.15
2018-12-30T07:42:26.538Z,102375.89
2018-12-30T07:45:31.669Z,102392.61
2018-12-30T07:48:36.781Z,102385.16
2018-12-30T07:51:41.911Z,102392.09
2018-12-30T07:54:47.043Z,102386.81
2018-12-30T07:57:52.265Z,102391.03
2018-12-30T08:00:57.387Z,102391.69
2018-12-30T08:04:02.521Z,102390.67
2018-12-30T08:07:07.627Z,102396.56
2018-12-30T08:10:12.757Z,102409.39
2018-12-30T08:13:17.870Z,102411.27
2018-12-30T08:16:23.089Z,102412.45
2018-12-30T08:19:28.199Z,102421.72
2018-12-30T08:22:34.695Z,102419.34
2018-12-30T08:25:39.886Z,102425.60
2018-12-30T08:28:45.456Z,102432.36
2018-12-30T08:31:50.692Z,102430.47
2018-12-30T08:34:55.935Z,102425.89
2018-12-30T08:38:01.032Z,102440.26
2018-12-30T08:41:06.262Z,102435.67
2018-12-30T08:44:11.361Z,102435.17
2018-12-30T08:47:16.503Z,102437.88
2018-12-30T08:50:21.607Z,102457.34
2018-12-30T08:53:29.483Z,102455.34
2018-12-30T08:56:33.572Z,102457.06
2018-12-30T08:59:38.685Z,102459.48
2018-12-30T09:02:43.817Z,102463.59
2018-12-30T09:05:48.970Z,102460.23
2018-12-30T09:08:54.074Z,102452.61
2018-12-30T09:11:59.217Z,102454.48
2018-12-30T09:15:04.399Z,102469.69
2018-12-30T09:18:09.547Z,102469.86
2018-12-30T09:21:14.659Z,102467.48
2018-12-30T09:24:19.801Z,102469.86
2018-12-30T09:27:24.933Z,102464.98
2018-12-30T09:30:30.722Z,102471.25
2018-12-30T09:33:35.817Z,102477.88
2018-12-30T09:36:40.957Z,102476.53
2018-12-30T09:39:46.147Z,102476.04
2018-12-30T09:42:51.288Z,102474.72
2018-12-30T09:45:56.405Z,102471.55
2018-12-30T09:49:01.523Z,102478.70
2018-12-30T09:52:06.740Z,102484.52
2018-12-30T09:55:11.935Z,102488.55
2018-12-30T09:58:17.064Z,102496.18
2018-12-30T10:01:22.306Z,102493.73
2018-12-30T10:04:27.387Z,102510.98
2018-12-30T10:07:32.497Z,102520.62
2018-12-30T10:10:37.638Z,102516.89
2018-12-30T10:13:42.776Z,102516.55
2018-12-30T10:16:47.925Z,102520.29
2018-12-30T10:19:53.043Z,102533.00
2018-12-30T10:22:58.910Z,102517.25
2018-12-30T10:26:04.373Z,102516.72
2018-12-30T10:29:09.532Z,102516.75
2018-12-30T10:32:14.651Z,102517.94
2018-12-30T10:35:19.793Z,102527.05
2018-12-30T10:38:24.937Z,102525.20
2018-12-30T10:41:30.061Z,102549.93
2018-12-30T10:44:35.180Z,102534.84
2018-12-30T10:47:40.288Z,102542.27
2018-12-30T10:50:45.428Z,102538.73
2018-12-30T10:53:50.546Z,102540.09
2018-12-30T10:56:55.644Z,102548.05
2018-12-30T11:00:00.797Z,102552.11
2018-12-30T11:03:06.005Z,102558.91
2018-12-30T11:06:11.147Z,102551.84
2018-12-30T11:09:16.250Z,102549.31
2018-12-30T11:12:21.427Z,102544.76
2018-12-30T11:15:26.548Z,102538.68
2018-12-30T11:18:31.873Z,102528.84
2018-12-30T11:21:37.161Z,102540.69
2018-12-30T11:24:42.278Z,102542.73
2018-12-30T11:27:47.422Z,102550.86
2018-12-30T11:30:52.569Z,102556.11
2018-12-30T11:33:57.772Z,102562.36
2018-12-30T11:37:02.998Z,102574.75
2018-12-30T11:40:08.425Z,102573.03
2018-12-30T11:43:13.563Z,102564.06
2018-12-30T11:46:18.685Z,102553.56
2018-12-30T11:49:23.820Z,102556.64
2018-12-30T11:52:28.978Z,102555.44
2018-12-30T11:55:34.166Z,102544.77
2018-12-30T11:58:39.378Z,102541.89
2018-12-30T12:01:44.645Z,102542.39
2018-12-30T12:04:49.791Z,102552.57
2018-12-30T12:07:54.967Z,102553.08
2018-12-30T12:11:00.109Z,102554.41
2018-12-30T12:14:05.358Z,102553.05
2018-12-30T12:17:10.481Z,102554.23
2018-12-30T12:20:15.580Z,102562.03
2018-12-30T12:23:20.732Z,102546.14
2018-12-30T12:26:25.849Z,102547.12
2018-12-30T12:29:30.973Z,102534.28
2018-12-30T12:32:36.097Z,102530.39
2018-12-30T12:35:41.241Z,102528.67
2018-12-30T12:38:46.388Z,102522.41
2018-12-30T12:41:51.523Z,102530.86
2018-12-30T12:44:56.671Z,102527.99
2018-12-30T12:48:01.771Z,102522.34
2018-12-30T12:51:07.051Z,102520.89
2018-12-30T12:54:12.166Z,102544.44
2018-12-30T12:57:17.315Z,102548.16
2018-12-30T13:00:22.524Z,102567.80
2018-12-30T13:03:27.683Z,102580.52
2018-12-30T13:06:32.805Z,102575.59
2018-12-30T13:09:37.950Z,102569.98
2018-12-30T13:12:43.106Z,102569.30
2018-12-30T13:15:48.218Z,102548.81
2018-12-30T13:18:53.349Z,102537.81
2018-12-30T13:21:58.447Z,102543.73
2018-12-30T13:25:03.673Z,102539.84
2018-12-30T13:28:08.791Z,102540.67
2018-12-30T13:31:13.996Z,102532.86
2018-12-30T13:34:19.160Z,102537.58
2018-12-30T13:37:24.270Z,102536.92
2018-12-30T13:40:29.420Z,102534.07
2018-12-30T13:43:34.530Z,102531.47
2018-12-30T13:46:39.651Z,102539.07
2018-12-30T13:49:44.815Z,102548.55
2018-12-30T13:52:49.944Z,102554.26
2018-12-30T13:55:55.114Z,102550.23
2018-12-30T13:59:00.237Z,102547.52
2018-12-30T14:02:05.516Z,102563.23
2018-12-30T14:05:10.794Z,102565.58
2018-12-30T14:08:16.776Z,102590.42
2018-12-30T14:11:21.910Z,102584.48
2018-12-30T14:14:27.066Z,102578.73
2018-12-30T14:17:32.192Z,102587.66
2018-12-30T14:20:37.320Z,102571.06
2018-12-30T14:23:42.446Z,102586.44
2018-12-30T14:26:47.582Z,102595.20
2018-12-30T14:29:52.689Z,102600.28
2018-12-30T14:32:57.806Z,102597.57
2018-12-30T14:36:02.979Z,102606.66
2018-12-30T14:39:09.462Z,102602.11
2018-12-30T14:42:14.599Z,102618.34
2018-12-30T14:45:19.874Z,102609.69
2018-12-30T14:48:25.014Z,102604.59
2018-12-30T14:51:30.148Z,102611.68
2018-12-30T14:54:35.329Z,102606.91
2018-12-30T14:57:40.461Z,102608.11
2018-12-30T15:00:45.678Z,102605.35
2018-12-30T15:03:50.800Z,102608.88
2018-12-30T15:06:56.039Z,102609.23
2018-12-30T15:10:01.175Z,102612.05
2018-12-30T15:13:06.356Z,102616.73
2018-12-30T15:16:11.563Z,102613.50
2018-12-30T15:19:16.697Z,102607.59
2018-12-30T15:22:21.810Z,102614.17
2018-12-30T15:25:27.026Z,102610.21
2018-12-30T15:28:32.213Z,102619.28
2018-12-30T15:31:37.415Z,102615.47
2018-12-30T15:34:42.535Z,102628.90
2018-12-30T15:37:47.646Z,102630.56
2018-12-30T15:40:52.775Z,102640.70
2018-12-30T15:43:57.910Z,102644.30
2018-12-30T15:47:03.017Z,102661.91
2018-12-30T15:50:09.566Z,102674.83
2018-12-30T15:53:14.673Z,102677.69
2018-12-30T15:56:19.792Z,102679.55
2018-12-30T15:59:24.913Z,102678.94
2018-12-30T16:02:32.454Z,102677.09
2018-12-30T16:05:37.754Z,102681.14
2018-12-30T16:08:42.870Z,102693.98
2018-12-30T16:11:47.978Z,102693.83
2018-12-30T16:14:53.133Z,102692.78
2018-12-30T16:17:58.326Z,102690.20
2018-12-30T16:21:03.473Z,102692.52
2018-12-30T16:24:08.596Z,102697.43
2018-12-30T16:27:13.763Z,102692.97
2018-12-30T16:30:18.949Z,102693.64
2018-12-30T16:33:24.060Z,102698.73
2018-12-30T16:36:29.216Z,102682.70
2018-12-30T16:39:34.382Z,102683.82
2018-12-30T16:42:39.581Z,102695.25
2018-12-30T16:45:44.884Z,102697.53
2018-12-30T16:48:50.187Z,102693.34
2018-12-30T16:51:55.866Z,102690.53
2018-12-30T16:55:01.031Z,102700.58
2018-12-30T16:58:06.674Z,102697.32
2018-12-30T17:01:12.641Z,102700.47
2018-12-30T17:04:30.452Z,102701.78
2018-12-30T17:07:36.836Z,102717.18
2018-12-30T17:10:41.974Z,102717.97
2018-12-30T17:13:47.264Z,102718.16
2018-12-30T17:16:52.925Z,102717.52
2018-12-30T17:19:58.268Z,102714.82
2018-12-30T17:23:03.552Z,102717.25
2018-12-30T17:26:37.276Z,102711.08
2018-12-30T17:29:42.636Z,102720.81
2018-12-30T17:32:47.933Z,102721.97
2018-12-30T17:36:09.352Z,102716.28
2018-12-30T17:39:14.556Z,102726.55
2018-12-30T17:42:19.885Z,102718.83
2018-12-30T17:45:25.137Z,102719.51
2018-12-30T17:48:30.850Z,102724.42
2018-12-30T17:51:36.058Z,102730.11
2018-12-30T17:54:42.718Z,102735.17
2018-12-30T17:57:47.848Z,102729.62
2018-12-30T18:00:56.473Z,102730.16
2018-12-30T18:04:01.720Z,102722.20
2018-12-30T18:07:06.989Z,102733.81
2018-12-30T18:10:12.305Z,102740.48
2018-12-30T18:13:17.514Z,102746.33
2018-12-30T18:16:22.830Z,102742.47
2018-12-30T18:19:28.072Z,102750.72
2018-12-30T18:22:33.300Z,102748.39
2018-12-30T18:25:38.779Z,102747.31
2018-12-30T18:28:43.994Z,102742.97
2018-12-30T18:31:49.354Z,102748.52
2018-12-30T18:34:54.545Z,102735.70
2018-12-30T18:37:59.803Z,102725.05
2018-12-30T18:41:05.139Z,102737.57
2018-12-30T18:44:10.352Z,102749.15
2018-12-30T18:47:15.609Z,102756.67
2018-12-30T18:50:20.949Z,102765.70
2018-12-30T18:53:26.290Z,102766.00
2018-12-30T18:56:31.629Z,102764.52
2018-12-30T18:59:36.875Z,102758.06
2018-12-30T19:02:42.187Z,102747.19
2018-12-30T19:05:47.501Z,102754.86
2018-12-30T19:08:52.701Z,102757.36
2018-12-30T19:11:57.966Z,102744.95
2018-12-30T19:15:03.128Z,102744.52
2018-12-30T19:18:08.323Z,102741.05
2018-12-30T19:21:13.555Z,102746.02
2018-12-30T19:24:18.817Z,102757.23
2018-12-30T19:27:24.295Z,102770.13
2018-12-30T19:30:29.501Z,102772.05
2018-12-30T19:33:34.733Z,102767.23
2018-12-30T19:36:40.001Z,102764.62
2018-12-30T19:39:45.268Z,102760.34
2018-12-30T19:42:50.568Z,102767.22
2018-12-30T19:45:55.805Z,102766.02
2018-12-30T19:49:00.929Z,102774.38
2018-12-30T19:52:06.198Z,102789.48
2018-12-30T19:55:11.420Z,102794.02
2018-12-30T19:58:16.526Z,102788.33
2018-12-30T20:01:21.675Z,102793.34
2018-12-30T20:04:26.805Z,102793.76
2018-12-30T20:07:31.957Z,102801.77
2018-12-30T20:10:37.062Z,102800.12
2018-12-30T20:13:42.295Z,102793.45
2018-12-30T20:16:47.474Z,102803.16
2018-12-30T20:19:52.660Z,102800.73
2018-12-30T20:22:57.831Z,102790.73
2018-12-30T20:26:03.179Z,102782.92
2018-12-30T20:29:08.330Z,102786.83
2018-12-30T20:32:13.497Z,102789.52
2018-12-30T20:35:18.716Z,102781.30
2018-12-30T20:38:23.946Z,102783.38
2018-12-30T20:41:29.114Z,102779.68
2018-12-30T20:44:34.342Z,102776.71
2018-12-30T20:47:39.439Z,102779.61
2018-12-30T20:50:44.620Z,102782.69
2018-12-30T20:53:49.723Z,102780.06
2018-12-30T20:56:54.892Z,102772.28
2018-12-30T21:00:00.019Z,102777.45
2018-12-30T21:03:05.241Z,102776.20
2018-12-30T21:06:10.362Z,102777.04
2018-12-30T21:09:15.555Z,102760.88
2018-12-30T21:12:20.646Z,102755.00
2018-12-30T21:15:25.857Z,102751.55
2018-12-30T21:18:30.952Z,102752.61
2018-12-30T21:21:36.101Z,102755.30
2018-12-30T21:24:41.192Z,102762.04
2018-12-30T21:27:46.302Z,102765.36
2018-12-30T21:30:51.419Z,102758.42
2018-12-30T21:33:56.549Z,102767.98
2018-12-30T21:37:01.670Z,102756.01
2018-12-30T21:40:07.787Z,102749.27
2018-12-30T21:43:13.004Z,102757.12
2018-12-30T21:46:18.133Z,102759.13
2018-12-30T21:49:23.242Z,102750.80
2018-12-30T21:52:28.345Z,102752.01
2018-12-30T21:55:33.470Z,102755.56
2018-12-30T21:58:38.611Z,102756.91
2018-12-30T22:01:43.687Z,102762.30
2018-12-30T22:04:48.821Z,102763.30
2018-12-30T22:07:53.944Z,102765.27
2018-12-30T22:10:59.074Z,102760.03
2018-12-30T22:14:04.252Z,102759.68
2018-12-30T22:17:09.457Z,102749.97
2018-12-30T22:20:14.569Z,102748.34
2018-12-30T22:23:19.662Z,102749.03
2018-12-30T22:26:24.778Z,102755.28
2018-12-30T22:29:29.877Z,102753.80
2018-12-30T22:32:34.999Z,102751.97
2018-12-30T22:35:40.261Z,102759.67
2018-12-30T22:38:45.370Z,102755.08
2018-12-30T22:41:50.626Z,102761.23
2018-12-30T22:44:55.718Z,102763.34
2018-12-30T22:48:00.818Z,102762.41
2018-12-30T22:51:05.941Z,102757.10
2018-12-30T22:54:11.029Z,102766.94
2018-12-30T22:57:16.147Z,102769.91
2018-12-30T23:00:39.600Z,102763.08
2018-12-30T23:03:44.692Z,102765.91
2018-12-30T23:06:49.830Z,102770.22
2018-12-30T23:09:54.917Z,102773.67
2018-12-30T23:13:00.019Z,102764.77
2018-12-30T23:16:05.175Z,102761.70
2018-12-30T23:19:10.248Z,102764.39
2018-12-30T23:22:15.364Z,102761.70
2018-12-30T23:25:20.465Z,102765.11
2018-12-30T23:28:25.559Z,102769.42
2018-12-30T23:31:30.721Z,102761.97
2018-12-30T23:34:35.841Z,102759.41
2018-12-30T23:37:40.954Z,102763.11
2018-12-30T23:40:46.167Z,102768.97
2018-12-30T23:43:51.293Z,102768.11
2018-12-30T23:46:56.376Z,102762.38
2018-12-30T23:50:01.520Z,102754.09
2018-12-30T23:53:06.617Z,102760.38
2018-12-30T23:56:11.805Z,102771.03
2018-12-30T23:59:16.987Z,102784.62
